createdAt,value
2017-11-03T00:00:56.209Z,53.03
2017-11-03T00:03:25.276Z,49.53
2017-11-03T00:05:53.634Z,47.17
2017-11-03T00:08:21.943Z,52.53
2017-11-03T00:10:50.252Z,49.90
2017-11-03T00:13:18.569Z,59.77
2017-11-03T00:15:47.641Z,60.13
2017-11-03T00:18:15.999Z,57.97
2017-11-03T00:20:44.310Z,48.17
2017-11-03T00:23:12.620Z,55.80
2017-11-03T00:25:41.689Z,270.97
2017-11-03T00:28:10.000Z,65.10
2017-11-03T00:30:38.439Z,66.30
2017-11-03T00:33:07.533Z,79.60
2017-11-03T00:35:35.837Z,81.17
2017-11-03T00:38:05.091Z,85.30
2017-11-03T00:40:33.795Z,89.53
2017-11-03T00:43:02.120Z,86.03
2017-11-03T00:45:31.204Z,88.83
2017-11-03T00:47:59.499Z,86.63
2017-11-03T00:50:27.880Z,89.53
2017-11-03T00:52:56.189Z,77.23
2017-11-03T00:55:24.874Z,90.20
2017-11-03T00:57:53.172Z,82.70
2017-11-03T01:00:21.473Z,82.03
2017-11-03T01:02:50.736Z,60.77
2017-11-03T01:05:19.141Z,57.47
2017-11-03T01:07:47.453Z,64.53
2017-11-03T01:10:15.758Z,55.63
2017-11-03T01:12:44.941Z,53.50
2017-11-03T01:15:13.250Z,55.67
2017-11-03T01:17:42.101Z,64.03
2017-11-03T01:20:10.393Z,71.57
2017-11-03T01:22:38.756Z,59.20
2017-11-03T01:25:07.057Z,54.73
2017-11-03T01:27:35.519Z,58.97
2017-11-03T01:30:04.834Z,53.87
2017-11-03T01:32:33.523Z,59.60
2017-11-03T01:35:01.822Z,60.47
2017-11-03T01:37:31.188Z,53.63
2017-11-03T01:40:00.322Z,52.20
2017-11-03T01:42:28.627Z,51.90
2017-11-03T01:44:56.920Z,46.70
2017-11-03T01:47:25.985Z,50.63
2017-11-03T01:49:54.294Z,43.53
2017-11-03T01:52:22.590Z,43.87
2017-11-03T01:54:51.293Z,39.60
2017-11-03T01:57:19.600Z,50.73
2017-11-03T01:59:48.708Z,59.93
2017-11-03T02:02:17.968Z,70.40
2017-11-03T02:04:49.309Z,65.93
2017-11-03T02:07:17.626Z,78.43
2017-11-03T02:09:45.987Z,74.53
2017-11-03T02:12:14.629Z,96.60
2017-11-03T02:14:43.295Z,91.57
2017-11-03T02:17:12.325Z,95.50
2017-11-03T02:19:40.793Z,98.67
2017-11-03T02:22:09.275Z,94.40
2017-11-03T02:24:38.560Z,86.53
2017-11-03T02:27:07.512Z,86.43
2017-11-03T02:29:36.666Z,80.93
2017-11-03T02:32:06.231Z,66.03
2017-11-03T02:34:34.565Z,70.83
2017-11-03T02:37:02.843Z,73.63
2017-11-03T02:39:31.137Z,68.63
2017-11-03T02:41:59.465Z,67.03
2017-11-03T02:44:27.742Z,54.83
2017-11-03T02:46:56.026Z,61.47
2017-11-03T02:49:25.078Z,85.53
2017-11-03T02:51:53.377Z,83.73
2017-11-03T02:54:21.659Z,85.63
2017-11-03T02:56:49.972Z,75.93
2017-11-03T02:59:18.274Z,95.80
2017-11-03T03:01:47.352Z,84.83
2017-11-03T03:04:15.706Z,103.70
2017-11-03T03:06:44.030Z,120.00
2017-11-03T03:09:12.332Z,102.93
2017-11-03T03:11:40.640Z,106.37
2017-11-03T03:14:09.712Z,156.70
2017-11-03T03:16:38.007Z,106.77
2017-11-03T03:19:06.326Z,99.43
2017-11-03T03:21:35.392Z,108.23
2017-11-03T03:24:03.702Z,104.53
2017-11-03T03:26:31.991Z,109.10
2017-11-03T03:29:00.320Z,97.30
2017-11-03T03:31:28.641Z,102.20
2017-11-03T03:33:57.008Z,96.23
2017-11-03T03:36:25.395Z,98.90
2017-11-03T03:38:53.806Z,102.90
2017-11-03T03:41:22.179Z,89.17
2017-11-03T03:43:50.535Z,89.43
2017-11-03T03:46:18.875Z,131.17
2017-11-03T03:48:47.225Z,105.53
2017-11-03T03:51:16.384Z,104.13
2017-11-03T03:53:44.781Z,91.23
2017-11-03T03:56:13.127Z,95.67
2017-11-03T03:58:41.457Z,92.27
2017-11-03T04:01:09.781Z,97.07
2017-11-03T04:03:38.928Z,96.77
2017-11-03T04:06:07.332Z,93.17
2017-11-03T04:08:35.726Z,104.70
2017-11-03T04:11:04.046Z,86.00
2017-11-03T04:13:32.384Z,97.03
2017-11-03T04:16:00.731Z,80.10
2017-11-03T04:18:29.071Z,77.70
2017-11-03T04:20:57.420Z,74.40
2017-11-03T04:23:25.765Z,80.53
2017-11-03T04:25:54.088Z,85.90
2017-11-03T04:28:23.176Z,76.50
2017-11-03T04:30:51.466Z,84.00
2017-11-03T04:33:19.781Z,72.17
2017-11-03T04:35:48.083Z,73.00
2017-11-03T04:38:17.167Z,78.83
2017-11-03T04:40:45.481Z,88.93
2017-11-03T04:43:14.553Z,109.43
2017-11-03T04:45:42.885Z,108.07
2017-11-03T04:48:12.002Z,95.50
2017-11-03T04:50:40.323Z,92.43
2017-11-03T04:53:08.712Z,103.17
2017-11-03T04:55:37.121Z,84.93
2017-11-03T04:58:05.485Z,100.13
2017-11-03T05:00:33.835Z,99.83
2017-11-03T05:03:02.937Z,82.97
2017-11-03T05:05:32.047Z,94.03
2017-11-03T05:08:01.160Z,88.77
2017-11-03T05:10:30.291Z,121.10
2017-11-03T05:12:58.672Z,106.10
2017-11-03T05:15:27.058Z,104.73
2017-11-03T05:17:55.433Z,94.20
2017-11-03T05:20:23.774Z,92.73
2017-11-03T05:22:52.867Z,105.20
2017-11-03T05:25:21.253Z,134.83
2017-11-03T05:27:49.646Z,97.80
2017-11-03T05:30:18.036Z,96.80
2017-11-03T05:32:46.429Z,90.33
2017-11-03T05:35:14.840Z,94.17
2017-11-03T05:37:43.136Z,80.17
2017-11-03T05:40:11.436Z,98.20
2017-11-03T05:42:39.733Z,96.87
2017-11-03T05:45:08.037Z,106.43
2017-11-03T05:47:36.352Z,106.47
2017-11-03T05:50:04.648Z,83.70
2017-11-03T05:52:32.936Z,83.87
2017-11-03T05:55:01.227Z,94.97
2017-11-03T05:57:29.646Z,97.47
2017-11-03T05:59:57.940Z,70.30
2017-11-03T06:02:26.225Z,139.23
2017-11-03T06:04:54.522Z,72.60
2017-11-03T06:07:22.803Z,78.13
2017-11-03T06:09:51.100Z,82.87
2017-11-03T06:12:19.405Z,89.00
2017-11-03T06:14:47.696Z,86.83
2017-11-03T06:17:16.038Z,74.20
2017-11-03T06:19:44.348Z,71.50
2017-11-03T06:22:12.670Z,76.40
2017-11-03T06:24:40.970Z,68.00
2017-11-03T06:27:10.031Z,78.60
2017-11-03T06:29:38.323Z,70.10
2017-11-03T06:32:06.612Z,77.37
2017-11-03T06:34:34.907Z,66.37
2017-11-03T06:37:03.190Z,69.77
2017-11-03T06:39:31.500Z,71.37
2017-11-03T06:41:59.783Z,78.23
2017-11-03T06:44:28.099Z,87.57
2017-11-03T06:46:57.164Z,80.60
2017-11-03T06:49:25.464Z,91.40
2017-11-03T06:51:53.761Z,66.90
2017-11-03T06:54:22.077Z,69.17
2017-11-03T06:56:51.753Z,68.97
2017-11-03T06:59:20.057Z,74.30
2017-11-03T07:01:49.364Z,75.63
2017-11-03T07:04:18.557Z,72.03
2017-11-03T07:06:46.893Z,78.60
2017-11-03T07:09:16.430Z,73.10
2017-11-03T07:11:45.304Z,73.20
2017-11-03T07:14:14.562Z,80.47
2017-11-03T07:16:43.346Z,59.23
2017-11-03T07:19:12.407Z,57.80
2017-11-03T07:21:41.619Z,64.27
2017-11-03T07:24:09.909Z,54.80
2017-11-03T07:26:38.985Z,65.60
2017-11-03T07:29:07.367Z,64.37
2017-11-03T07:31:37.947Z,54.27
2017-11-03T07:34:06.324Z,64.47
2017-11-03T07:36:35.367Z,59.20
2017-11-03T07:39:05.069Z,54.77
2017-11-03T07:41:34.144Z,58.90
2017-11-03T07:44:03.903Z,54.93
2017-11-03T07:46:32.887Z,63.63
2017-11-03T07:49:01.386Z,42.03
2017-11-03T07:51:30.661Z,52.43
2017-11-03T07:53:59.080Z,54.00
2017-11-03T07:56:27.958Z,45.73
2017-11-03T07:58:57.173Z,53.90
2017-11-03T08:01:25.561Z,47.97
2017-11-03T08:03:54.478Z,46.90
2017-11-03T08:06:22.862Z,61.33
2017-11-03T08:08:51.442Z,50.23
2017-11-03T08:11:19.782Z,58.17
2017-11-03T08:13:49.505Z,51.97
2017-11-03T08:16:18.264Z,48.27
2017-11-03T08:18:47.111Z,44.27
2017-11-03T08:21:15.534Z,53.10
2017-11-03T08:23:43.919Z,44.37
2017-11-03T08:26:13.524Z,34.07
2017-11-03T08:28:42.184Z,30.10
2017-11-03T08:31:10.507Z,33.23
2017-11-03T08:33:38.804Z,33.93
2017-11-03T08:36:07.116Z,38.63
2017-11-03T08:38:35.553Z,29.83
2017-11-03T08:41:03.862Z,33.90
2017-11-03T08:43:32.927Z,35.60
2017-11-03T08:46:01.216Z,36.73
2017-11-03T08:48:29.521Z,29.70
2017-11-03T08:50:57.836Z,34.23
2017-11-03T08:53:26.153Z,40.70
2017-11-03T08:55:55.219Z,29.00
2017-11-03T08:58:23.517Z,29.17
2017-11-03T09:00:51.816Z,22.80
2017-11-03T09:03:20.149Z,20.37
2017-11-03T09:05:48.633Z,21.47
2017-11-03T09:08:16.932Z,20.07
2017-11-03T09:10:45.279Z,18.73
2017-11-03T09:13:13.603Z,17.50
2017-11-03T09:15:41.898Z,20.17
2017-11-03T09:18:10.190Z,21.30
2017-11-03T09:20:38.482Z,17.80
2017-11-03T09:23:06.791Z,17.60
2017-11-03T09:25:35.139Z,18.70
2017-11-03T09:28:04.191Z,24.10
2017-11-03T09:30:32.495Z,14.70
2017-11-03T09:33:00.804Z,14.50
2017-11-03T09:35:29.859Z,16.13
2017-11-03T09:37:58.186Z,13.03
2017-11-03T09:40:26.494Z,13.87
2017-11-03T09:42:55.556Z,14.13
2017-11-03T09:45:23.844Z,14.90
2017-11-03T09:47:52.135Z,13.13
2017-11-03T09:50:20.456Z,10.27
2017-11-03T09:52:48.791Z,12.07
2017-11-03T09:55:17.093Z,13.03
2017-11-03T09:57:46.678Z,14.70
2017-11-03T10:00:15.234Z,12.80
2017-11-03T10:02:43.587Z,13.10
2017-11-03T10:05:11.870Z,9.20
2017-11-03T10:07:40.194Z,13.70
2017-11-03T10:10:08.478Z,19.13
2017-11-03T10:12:36.754Z,11.33
2017-11-03T10:15:05.045Z,11.33
2017-11-03T10:17:33.322Z,13.57
2017-11-03T10:20:01.628Z,14.30
2017-11-03T10:22:29.916Z,12.97
2017-11-03T10:24:58.213Z,12.37
2017-11-03T10:27:26.515Z,13.17
2017-11-03T10:29:54.815Z,10.90
2017-11-03T10:32:23.127Z,12.80
2017-11-03T10:34:52.207Z,18.63
2017-11-03T10:37:20.505Z,12.30
2017-11-03T10:39:48.803Z,14.50
2017-11-03T10:42:17.888Z,14.73
2017-11-03T10:44:46.191Z,10.07
2017-11-03T10:47:14.487Z,12.30
2017-11-03T10:49:43.546Z,15.43
2017-11-03T10:52:11.822Z,11.80
2017-11-03T10:54:40.116Z,12.73
2017-11-03T10:57:08.408Z,13.07
2017-11-03T10:59:36.724Z,11.93
2017-11-03T11:02:05.019Z,9.43
2017-11-03T11:04:33.316Z,12.20
2017-11-03T11:07:01.621Z,11.60
2017-11-03T11:09:29.989Z,10.30
2017-11-03T11:11:59.129Z,9.40
2017-11-03T11:14:28.274Z,12.30
2017-11-03T11:16:56.634Z,10.80
2017-11-03T11:19:24.976Z,10.97
2017-11-03T11:21:53.336Z,13.13
2017-11-03T11:24:21.694Z,10.10
2017-11-03T11:26:50.817Z,11.33
2017-11-03T11:29:19.177Z,14.27
2017-11-03T11:31:48.341Z,16.53
2017-11-03T11:34:16.838Z,13.87
2017-11-03T11:36:45.231Z,12.60
2017-11-03T11:39:14.422Z,13.83
2017-11-03T11:41:42.759Z,12.53
2017-11-03T11:44:11.193Z,12.13
2017-11-03T11:46:39.551Z,11.80
2017-11-03T11:49:08.667Z,12.30
2017-11-03T11:51:37.759Z,11.63
2017-11-03T11:54:06.114Z,16.60
2017-11-03T11:56:36.298Z,10.97
2017-11-03T11:59:04.783Z,10.73
2017-11-03T12:01:33.086Z,10.90
2017-11-03T12:04:03.370Z,9.00
2017-11-03T12:06:32.118Z,12.73
2017-11-03T12:09:00.488Z,13.00
2017-11-03T12:11:28.799Z,11.73
2017-11-03T12:14:00.874Z,12.83
2017-11-03T12:16:29.860Z,13.57
2017-11-03T12:18:59.084Z,17.60
2017-11-03T12:21:29.686Z,15.30
2017-11-03T12:23:59.522Z,19.87
2017-11-03T12:26:30.851Z,17.87
2017-11-03T12:28:59.993Z,18.30
2017-11-03T12:31:30.582Z,20.77
2017-11-03T12:33:59.314Z,18.90
2017-11-03T12:36:29.070Z,20.07
2017-11-03T12:38:57.490Z,19.87
2017-11-03T12:41:26.549Z,23.43
2017-11-03T12:43:54.882Z,21.83
2017-11-03T12:46:23.941Z,22.90
2017-11-03T12:48:52.256Z,24.53
2017-11-03T12:51:20.572Z,25.23
2017-11-03T12:53:48.870Z,23.40
2017-11-03T12:56:17.214Z,19.60
2017-11-03T12:58:45.526Z,20.87
2017-11-03T13:01:14.636Z,22.40
2017-11-03T13:03:43.725Z,21.47
2017-11-03T13:06:12.060Z,22.40
2017-11-03T13:08:40.426Z,20.60
2017-11-03T13:11:09.536Z,20.97
2017-11-03T13:13:38.687Z,24.13
2017-11-03T13:16:07.841Z,20.70
2017-11-03T13:18:36.939Z,22.00
2017-11-03T13:21:06.065Z,25.33
2017-11-03T13:23:35.174Z,20.93
2017-11-03T13:26:03.524Z,23.97
2017-11-03T13:28:31.936Z,24.60
2017-11-03T13:31:01.048Z,15.77
2017-11-03T13:33:29.425Z,18.53
2017-11-03T13:35:57.795Z,19.63
2017-11-03T13:38:26.157Z,20.43
2017-11-03T13:40:55.420Z,17.50
2017-11-03T13:43:23.807Z,17.90
2017-11-03T13:45:52.333Z,16.93
2017-11-03T13:48:21.415Z,17.63
2017-11-03T13:50:49.715Z,19.63
2017-11-03T13:53:18.015Z,18.90
2017-11-03T13:55:47.168Z,16.90
2017-11-03T13:58:15.545Z,19.83
2017-11-03T14:00:43.910Z,21.23
2017-11-03T14:03:13.020Z,20.60
2017-11-03T14:05:42.120Z,21.70
2017-11-03T14:08:11.070Z,22.20
2017-11-03T14:10:39.451Z,20.67
2017-11-03T14:13:07.828Z,27.97
2017-11-03T14:15:36.159Z,15.93
2017-11-03T14:18:04.473Z,14.77
2017-11-03T14:20:33.599Z,18.03
2017-11-03T14:23:02.656Z,29.73
2017-11-03T14:25:30.955Z,35.10
2017-11-03T14:27:59.294Z,39.90
2017-11-03T14:30:27.598Z,42.20
2017-11-03T14:32:55.890Z,34.40
2017-11-03T14:35:25.155Z,43.20
2017-11-03T14:37:53.467Z,43.93
2017-11-03T14:40:21.790Z,39.83
2017-11-03T14:42:50.099Z,41.93
2017-11-03T14:45:18.431Z,46.43
2017-11-03T14:47:47.486Z,41.30
2017-11-03T14:50:15.795Z,42.93
2017-11-03T14:52:44.124Z,37.27
2017-11-03T14:55:13.171Z,41.83
2017-11-03T14:57:41.465Z,42.90
2017-11-03T15:00:09.762Z,39.67
2017-11-03T15:02:38.063Z,42.27
2017-11-03T15:05:06.369Z,49.10
2017-11-03T15:07:34.668Z,52.13
2017-11-03T15:10:03.739Z,52.23
2017-11-03T15:12:32.058Z,55.43
2017-11-03T15:15:01.140Z,48.00
2017-11-03T15:17:29.425Z,57.03
2017-11-03T15:19:57.729Z,45.47
2017-11-03T15:22:26.015Z,54.00
2017-11-03T15:24:54.314Z,56.87
2017-11-03T15:27:22.615Z,52.23
2017-11-03T15:29:51.686Z,66.30
2017-11-03T15:32:20.040Z,72.60
2017-11-03T15:34:48.356Z,69.50
2017-11-03T15:37:16.664Z,68.80
2017-11-03T15:39:45.777Z,63.93
2017-11-03T15:42:14.230Z,65.00
2017-11-03T15:44:42.532Z,59.97
2017-11-03T15:47:10.826Z,61.07
2017-11-03T15:49:39.129Z,65.63
2017-11-03T15:52:07.427Z,67.23
2017-11-03T15:54:35.792Z,73.17
2017-11-03T15:57:04.100Z,71.63
2017-11-03T15:59:32.422Z,71.10
2017-11-03T16:02:01.720Z,65.50
2017-11-03T16:04:30.039Z,73.20
2017-11-03T16:06:58.322Z,66.23
2017-11-03T16:09:26.615Z,71.40
2017-11-03T16:11:54.928Z,71.80
2017-11-03T16:14:23.260Z,94.17
2017-11-03T16:16:52.521Z,81.23
2017-11-03T16:19:21.054Z,76.30
2017-11-03T16:21:49.448Z,65.00
2017-11-03T16:24:17.792Z,67.50
2017-11-03T16:26:46.090Z,65.50
2017-11-03T16:29:14.380Z,64.30
2017-11-03T16:31:42.672Z,59.70
2017-11-03T16:34:10.960Z,57.00
2017-11-03T16:36:39.267Z,60.83
2017-11-03T16:39:07.566Z,54.87
2017-11-03T16:41:35.858Z,56.73
2017-11-03T16:44:04.156Z,55.17
2017-11-03T16:49:32.415Z,83.17
2017-11-03T16:55:18.027Z,74.20
2017-11-03T16:57:47.109Z,70.40
2017-11-03T17:00:19.904Z,56.97
2017-11-03T17:02:49.002Z,60.70
2017-11-03T17:05:17.303Z,57.07
2017-11-03T17:07:45.617Z,55.27
2017-11-03T17:10:13.920Z,56.40
2017-11-03T17:12:42.275Z,54.13
2017-11-03T17:15:11.340Z,42.57
2017-11-03T17:17:39.629Z,43.90
2017-11-03T17:20:07.936Z,43.10
2017-11-03T17:22:36.231Z,47.30
2017-11-03T17:25:04.517Z,52.90
2017-11-03T17:27:32.851Z,55.63
2017-11-03T17:30:01.177Z,56.90
2017-11-03T17:32:29.470Z,50.47
2017-11-03T17:34:57.835Z,65.30
2017-11-03T17:37:27.070Z,71.77
2017-11-03T17:39:55.413Z,69.30
2017-11-03T17:42:24.483Z,76.63
2017-11-03T17:44:52.812Z,87.93
2017-11-03T17:47:21.880Z,66.13
2017-11-03T17:49:50.212Z,66.80
2017-11-03T17:52:18.524Z,78.13
2017-11-03T17:54:46.840Z,60.87
2017-11-03T17:57:17.240Z,76.00
2017-11-03T17:59:45.918Z,72.20
2017-11-03T18:02:15.030Z,72.83
2017-11-03T18:04:43.472Z,65.07
2017-11-03T18:07:11.778Z,66.77
2017-11-03T18:09:40.075Z,60.57
2017-11-03T18:12:08.392Z,78.00
2017-11-03T18:14:37.453Z,60.50
2017-11-03T18:17:05.774Z,76.67
2017-11-03T18:19:34.843Z,67.00
2017-11-03T18:22:03.128Z,71.40
2017-11-03T18:24:31.693Z,76.00
2017-11-03T18:27:01.471Z,61.70
2017-11-03T18:29:31.058Z,67.00
2017-11-03T18:31:59.745Z,82.13
2017-11-03T18:34:28.738Z,88.10
2017-11-03T18:36:57.538Z,75.90
2017-11-03T18:39:26.222Z,80.33
2017-11-03T18:41:57.421Z,66.70
2017-11-03T18:44:25.997Z,66.73
2017-11-03T18:46:56.493Z,79.73
2017-11-03T18:49:26.021Z,87.20
2017-11-03T18:51:54.794Z,77.53
2017-11-03T18:54:24.897Z,89.57
2017-11-03T18:56:53.601Z,102.57
2017-11-03T18:59:22.458Z,63.13
2017-11-03T19:01:52.248Z,78.07
2017-11-03T19:04:21.032Z,81.37
2017-11-03T19:06:50.669Z,66.87
2017-11-03T19:09:19.472Z,74.73
2017-11-03T19:11:48.381Z,63.50
2017-11-03T19:14:18.073Z,85.00
2017-11-03T19:16:47.485Z,68.90
2017-11-03T19:19:16.120Z,65.23
2017-11-03T19:21:45.678Z,83.50
2017-11-03T19:24:15.544Z,64.50
2017-11-03T19:26:44.143Z,74.47
2017-11-03T19:29:12.838Z,71.90
2017-11-03T19:31:41.723Z,73.67
2017-11-03T19:34:10.310Z,86.77
2017-11-03T19:36:40.235Z,63.03
2017-11-03T19:39:09.901Z,68.10
2017-11-03T19:41:38.520Z,72.33
2017-11-03T19:44:07.742Z,82.33
2017-11-03T19:46:36.689Z,82.10
2017-11-03T19:49:06.074Z,79.47
2017-11-03T19:51:35.660Z,93.83
2017-11-03T19:54:04.230Z,76.23
2017-11-03T19:56:33.986Z,88.23
2017-11-03T19:59:02.954Z,102.67
2017-11-03T20:01:31.732Z,97.37
2017-11-03T20:04:00.799Z,93.50
2017-11-03T20:06:29.430Z,88.83
2017-11-03T20:08:58.829Z,80.33
2017-11-03T20:11:27.810Z,82.97
2017-11-03T20:13:56.502Z,77.27
2017-11-03T20:16:26.140Z,80.97
2017-11-03T20:18:55.560Z,71.07
2017-11-03T20:21:24.202Z,76.27
2017-11-03T20:23:52.886Z,87.63
2017-11-03T20:26:21.606Z,84.97
2017-11-03T20:28:50.274Z,90.30
2017-11-03T20:31:20.487Z,70.90
2017-11-03T20:33:49.290Z,88.73
2017-11-03T20:36:17.967Z,90.53
2017-11-03T20:38:46.678Z,82.80
2017-11-03T20:41:15.339Z,78.40
2017-11-03T20:43:44.974Z,76.13
2017-11-03T20:46:15.726Z,77.27
2017-11-03T20:48:44.389Z,79.50
2017-11-03T20:51:13.909Z,88.07
2017-11-03T20:53:42.966Z,76.37
2017-11-03T20:56:12.415Z,89.90
2017-11-03T20:58:41.095Z,88.00
2017-11-03T21:01:09.709Z,106.83
2017-11-03T21:03:38.444Z,72.23
2017-11-03T21:06:08.025Z,69.90
2017-11-03T21:08:36.594Z,59.13
2017-11-03T21:11:05.155Z,52.40
2017-11-03T21:13:34.768Z,54.57
2017-11-03T21:16:04.293Z,55.33
2017-11-03T21:18:33.422Z,56.87
2017-11-03T21:21:03.224Z,56.90
2017-11-03T21:23:32.574Z,57.30
2017-11-03T21:26:01.588Z,69.90
2017-11-03T21:28:31.816Z,61.77
2017-11-03T21:31:01.361Z,64.33
2017-11-03T21:33:30.009Z,63.33
2017-11-03T21:35:58.697Z,67.90
2017-11-03T21:38:27.050Z,60.83
2017-11-03T21:40:55.347Z,54.67
2017-11-03T21:43:23.663Z,73.47
2017-11-03T21:45:51.960Z,77.53
2017-11-03T21:48:20.259Z,56.57
2017-11-03T21:50:49.342Z,54.90
2017-11-03T21:53:17.709Z,60.93
2017-11-03T21:58:39.030Z,65.57
2017-11-03T22:04:07.160Z,75.43
2017-11-03T22:06:35.465Z,58.40
2017-11-03T22:09:03.764Z,53.33
2017-11-03T22:11:32.057Z,54.97
2017-11-03T22:20:07.757Z,51.40
2017-11-03T22:22:36.117Z,59.63
2017-11-03T22:25:04.814Z,54.57
2017-11-03T22:27:33.979Z,61.83
2017-11-03T22:30:03.312Z,60.47
2017-11-03T22:32:31.833Z,53.63
2017-11-03T22:35:00.278Z,49.97
2017-11-03T22:37:28.731Z,48.53
2017-11-03T22:39:57.138Z,51.77
2017-11-03T22:42:25.648Z,67.73
2017-11-03T22:44:54.047Z,67.37
2017-11-03T22:47:23.413Z,49.57
2017-11-03T22:49:51.960Z,49.60
2017-11-03T22:52:20.338Z,38.27
2017-11-03T22:54:48.653Z,51.27
2017-11-03T22:57:17.256Z,41.63
2017-11-03T22:59:45.924Z,60.83
2017-11-03T23:02:14.504Z,40.83
2017-11-03T23:04:43.103Z,44.23
2017-11-03T23:07:11.798Z,41.93
2017-11-03T23:09:40.229Z,50.43
2017-11-03T23:12:09.656Z,56.63
2017-11-03T23:14:38.269Z,47.37
2017-11-03T23:17:06.795Z,56.87
2017-11-03T23:19:35.396Z,48.50
2017-11-03T23:22:04.036Z,50.60
2017-11-03T23:24:32.479Z,60.37
2017-11-03T23:27:00.869Z,69.10
2017-11-03T23:29:29.276Z,51.63
2017-11-03T23:31:57.580Z,43.60
2017-11-03T23:34:26.079Z,46.07
2017-11-03T23:36:54.469Z,40.93
2017-11-03T23:39:23.004Z,42.23
2017-11-03T23:41:51.512Z,46.97
2017-11-03T23:44:20.111Z,41.93
2017-11-03T23:46:48.687Z,49.83
2017-11-03T23:49:17.264Z,46.30
2017-11-03T23:51:45.988Z,49.63
2017-11-03T23:54:15.175Z,47.63
2017-11-03T23:56:43.663Z,53.30
2017-11-03T23:59:12.210Z,864.13
